Time;durP1;ratioP1;P1;durP2;ratioP2;P2;SDS_P1;SDS_P2;PMS_P1;PMS_P2;Temp;Humidity;BMP_temperature;BMP_pressure;BME280_temperature;BME280_humidity;BME280_pressure;Samples;Min_cycle;Max_cycle;Signal;HPM_P1;HPM_P2
2022/06/27 00:00:13;;;;;;;6.07;5.55;;;;;;;;;;2091175;28;20497;-73
2022/06/27 00:01:32;;;;;;;8.15;4.90;;;;;;;;;;2091535;28;20032;-76
2022/06/27 00:02:51;;;;;;;6.82;5.57;;;;;;;;;;2091521;28;20036;-73
2022/06/27 00:04:10;;;;;;;5.18;4.88;;;;;;;;;;2088472;28;20147;-75
2022/06/27 00:05:32;;;;;;;5.30;4.93;;;;;;;;;;2091323;28;20452;-74
2022/06/27 00:06:52;;;;;;;8.27;5.72;;;;;;;;;;2092307;28;20033;-78
2022/06/27 00:08:10;;;;;;;5.75;4.80;;;;;;;;;;2092266;28;20033;-74
2022/06/27 00:09:29;;;;;;;5.40;5.05;;;;;;;;;;2090120;28;20036;-76
2022/06/27 00:10:48;;;;;;;6.22;5.32;;;;;;;;;;2090222;28;20024;-75
2022/06/27 00:12:10;;;;;;;5.38;5.07;;;;;;;;;;2093134;28;20033;-74
2022/06/27 00:13:29;;;;;;;5.40;5.10;;;;;;;;;;2092856;28;20028;-75
2022/06/27 00:14:48;;;;;;;5.05;4.60;;;;;;;;;;2091807;28;20029;-74
2022/06/27 00:16:08;;;;;;;5.32;5.03;;;;;;;;;;2091155;28;20052;-74
2022/06/27 00:17:29;;;;;;;6.53;5.15;;;;;;;;;;2092234;28;20044;-74
2022/06/27 00:18:49;;;;;;;5.38;4.88;;;;;;;;;;2089611;28;20020;-74
2022/06/27 00:20:07;;;;;;;5.40;5.00;;;;;;;;;;2092614;28;20044;-74
2022/06/27 00:21:27;;;;;;;5.63;5.22;;;;;;;;;;2092203;28;20044;-75
2022/06/27 00:22:45;;;;;;;5.47;4.97;;;;;;;;;;2088681;28;20025;-74
2022/06/27 00:24:04;;;;;;;5.03;4.63;;;;;;;;;;2090454;28;20029;-74
2022/06/27 00:25:23;;;;;;;5.70;5.30;;;;;;;;;;2092851;28;20021;-75
2022/06/27 00:26:42;;;;;;;5.10;4.70;;;;;;;;;;2093111;28;20060;-75
2022/06/27 00:28:01;;;;;;;6.78;5.43;;;;;;;;;;2094386;28;20028;-74
2022/06/27 00:29:20;;;;;;;5.57;4.72;;;;;;;;;;2087793;28;20107;-75
2022/06/27 00:30:39;;;;;;;5.63;5.22;;;;;;;;;;2090796;28;20028;-74
2022/06/27 00:31:58;;;;;;;6.57;5.20;;;;;;;;;;2091642;28;20052;-76
2022/06/27 00:33:17;;;;;;;6.32;4.90;;;;;;;;;;2090352;28;20036;-74
2022/06/27 00:34:36;;;;;;;5.03;4.72;;;;;;;;;;2092884;28;20120;-75
2022/06/27 00:35:54;;;;;;;5.70;5.20;;;;;;;;;;2091270;28;20439;-74
2022/06/27 00:37:13;;;;;;;6.35;6.03;;;;;;;;;;2092748;28;20108;-74
2022/06/27 00:38:32;;;;;;;6.07;5.68;;;;;;;;;;2093285;28;20028;-74
2022/06/27 00:39:51;;;;;;;5.75;5.35;;;;;;;;;;2092123;28;20021;-74
2022/06/27 00:41:10;;;;;;;5.97;5.38;;;;;;;;;;2085893;28;20036;-76
2022/06/27 00:42:29;;;;;;;5.32;4.93;;;;;;;;;;2087275;28;20029;-76
2022/06/27 00:43:48;;;;;;;6.07;5.45;;;;;;;;;;2091060;28;20024;-79
2022/06/27 00:45:08;;;;;;;10.30;5.25;;;;;;;;;;2092311;28;20037;-74
2022/06/27 00:46:27;;;;;;;5.50;5.00;;;;;;;;;;2091685;28;20088;-74
2022/06/27 00:47:46;;;;;;;6.13;5.50;;;;;;;;;;2092460;28;20021;-75
2022/06/27 00:49:05;;;;;;;7.00;5.15;;;;;;;;;;2092412;28;20025;-77
2022/06/27 00:50:24;;;;;;;6.90;5.30;;;;;;;;;;2092357;28;20029;-76
2022/06/27 00:51:43;;;;;;;6.00;5.00;;;;;;;;;;2091173;28;20037;-76
2022/06/27 00:53:02;;;;;;;5.32;4.68;;;;;;;;;;2092125;28;20104;-74
2022/06/27 00:54:22;;;;;;;5.35;4.95;;;;;;;;;;2091664;28;20477;-74
2022/06/27 00:55:41;;;;;;;6.15;5.25;;;;;;;;;;2096692;28;20016;-74
2022/06/27 00:57:00;;;;;;;4.90;4.60;;;;;;;;;;2092572;28;20037;-74
2022/06/27 00:58:19;;;;;;;5.32;4.82;;;;;;;;;;2091679;28;20033;-74
2022/06/27 00:59:38;;;;;;;6.10;5.00;;;;;;;;;;2092332;28;20107;-75
2022/06/27 01:00:57;;;;;;;5.40;5.00;;;;;;;;;;2091245;28;20562;-74
2022/06/27 01:02:16;;;;;;;6.65;5.10;;;;;;;;;;2088440;28;20506;-74
2022/06/27 01:03:35;;;;;;;5.47;5.10;;;;;;;;;;2087421;28;20021;-75
2022/06/27 01:04:54;;;;;;;5.50;5.10;;;;;;;;;;2092793;28;20033;-74
2022/06/27 01:06:13;;;;;;;5.35;4.95;;;;;;;;;;2092148;28;21176;-76
2022/06/27 01:07:32;;;;;;;5.63;5.20;;;;;;;;;;2090979;28;20032;-79
2022/06/27 01:08:51;;;;;;;5.25;4.78;;;;;;;;;;2093123;28;20025;-75
2022/06/27 01:10:10;;;;;;;5.47;5.18;;;;;;;;;;2091425;28;20029;-74
2022/06/27 01:11:29;;;;;;;9.38;5.47;;;;;;;;;;2092587;28;20033;-75
2022/06/27 01:12:49;;;;;;;5.40;5.00;;;;;;;;;;2091722;28;20440;-74
2022/06/27 01:14:07;;;;;;;5.28;4.80;;;;;;;;;;2088363;28;20143;-74
2022/06/27 01:15:26;;;;;;;5.55;5.05;;;;;;;;;;2089918;28;20455;-74
2022/06/27 01:16:45;;;;;;;6.40;5.32;;;;;;;;;;2092747;28;20049;-74
2022/06/27 01:18:04;;;;;;;5.35;5.05;;;;;;;;;;2091020;28;20037;-75
2022/06/27 01:19:23;;;;;;;6.57;5.13;;;;;;;;;;2088751;28;20033;-75
2022/06/27 01:20:43;;;;;;;4.75;4.35;;;;;;;;;;2092452;28;20029;-74
2022/06/27 01:22:06;;;;;;;5.35;4.80;;;;;;;;;;2091541;28;20025;-75
2022/06/27 01:23:25;;;;;;;5.90;4.85;;;;;;;;;;2093000;28;20618;-74
2022/06/27 01:24:44;;;;;;;5.40;5.00;;;;;;;;;;2090912;28;20020;-74
2022/06/27 01:26:03;;;;;;;5.60;5.22;;;;;;;;;;2092966;28;20029;-75
2022/06/27 01:27:22;;;;;;;6.72;6.18;;;;;;;;;;2090327;28;20037;-74
2022/06/27 01:28:41;;;;;;;7.28;6.65;;;;;;;;;;2092102;28;20021;-76
2022/06/27 01:30:00;;;;;;;6.53;6.03;;;;;;;;;;2092672;28;20041;-75
2022/06/27 01:31:19;;;;;;;5.97;5.45;;;;;;;;;;2092031;28;20119;-75
2022/06/27 01:32:38;;;;;;;6.03;5.53;;;;;;;;;;2091887;28;20029;-75
2022/06/27 01:33:57;;;;;;;7.20;5.93;;;;;;;;;;2091195;28;20040;-75
2022/06/27 01:35:16;;;;;;;6.18;5.68;;;;;;;;;;2092141;28;20037;-74
2022/06/27 01:36:44;;;;;;;6.85;6.10;;;;;;;;;;2091481;28;20037;-74
2022/06/27 01:38:03;;;;;;;5.80;5.25;;;;;;;;;;2090328;28;20040;-74
2022/06/27 01:39:23;;;;;;;5.68;5.28;;;;;;;;;;2087979;28;20029;-75
2022/06/27 01:40:42;;;;;;;6.40;5.90;;;;;;;;;;2091879;28;20029;-75
2022/06/27 01:42:02;;;;;;;7.57;6.00;;;;;;;;;;2090204;28;20033;-75
2022/06/27 01:43:21;;;;;;;4.78;4.47;;;;;;;;;;2090602;28;20028;-75
2022/06/27 01:44:40;;;;;;;5.72;5.28;;;;;;;;;;2092517;28;20029;-74
2022/06/27 01:45:59;;;;;;;5.90;5.30;;;;;;;;;;2091781;28;20025;-75
2022/06/27 01:47:18;;;;;;;5.50;5.18;;;;;;;;;;2091137;28;20397;-74
2022/06/27 01:48:38;;;;;;;5.28;4.97;;;;;;;;;;2092031;28;20103;-75
2022/06/27 01:49:57;;;;;;;5.38;5.07;;;;;;;;;;2092185;28;20103;-75
2022/06/27 01:51:16;;;;;;;6.20;5.60;;;;;;;;;;2092626;28;20100;-74
2022/06/27 01:52:35;;;;;;;6.85;5.50;;;;;;;;;;2090755;28;20425;-74
2022/06/27 01:53:53;;;;;;;7.03;5.15;;;;;;;;;;2095713;28;20124;-76
2022/06/27 01:55:12;;;;;;;5.45;5.07;;;;;;;;;;2094066;28;20024;-75
2022/06/27 01:56:31;;;;;;;5.78;5.28;;;;;;;;;;2091626;28;20120;-75
2022/06/27 01:57:51;;;;;;;5.43;4.97;;;;;;;;;;2091561;28;20041;-76
2022/06/27 01:59:11;;;;;;;5.60;5.20;;;;;;;;;;2092031;28;20036;-75
2022/06/27 02:00:30;;;;;;;5.63;5.13;;;;;;;;;;2091104;28;20060;-75
2022/06/27 02:01:49;;;;;;;5.82;5.43;;;;;;;;;;2092603;28;20017;-75
2022/06/27 02:03:08;;;;;;;5.38;4.90;;;;;;;;;;2091003;28;20032;-75
2022/06/27 02:04:28;;;;;;;5.57;5.07;;;;;;;;;;2091708;28;20530;-74
2022/06/27 02:05:47;;;;;;;7.60;5.45;;;;;;;;;;2092387;28;20024;-74
2022/06/27 02:07:06;;;;;;;6.10;5.60;;;;;;;;;;2092008;28;20025;-74
2022/06/27 02:08:27;;;;;;;5.63;5.22;;;;;;;;;;2090446;28;20037;-77
2022/06/27 02:09:46;;;;;;;5.78;5.38;;;;;;;;;;2092047;28;20024;-75
2022/06/27 02:11:05;;;;;;;6.95;6.25;;;;;;;;;;2090905;28;20410;-78
2022/06/27 02:12:26;;;;;;;5.45;5.05;;;;;;;;;;2091153;28;20036;-75
2022/06/27 02:13:45;;;;;;;6.60;5.88;;;;;;;;;;2098943;28;20107;-74
2022/06/27 02:15:04;;;;;;;6.05;5.28;;;;;;;;;;2092349;28;20037;-79
2022/06/27 02:16:24;;;;;;;5.82;5.53;;;;;;;;;;2093268;28;20398;-74
2022/06/27 02:17:43;;;;;;;7.30;5.70;;;;;;;;;;2100393;28;21431;-74
2022/06/27 02:19:02;;;;;;;5.68;5.18;;;;;;;;;;2091604;28;20028;-74
2022/06/27 02:20:21;;;;;;;6.00;5.50;;;;;;;;;;2094607;28;20040;-74
2022/06/27 02:21:40;;;;;;;6.13;5.57;;;;;;;;;;2093409;28;20029;-74
2022/06/27 02:23:00;;;;;;;5.63;5.32;;;;;;;;;;2093010;28;20025;-75
2022/06/27 02:24:19;;;;;;;6.60;5.43;;;;;;;;;;2091070;28;20021;-75
2022/06/27 02:25:38;;;;;;;8.15;5.00;;;;;;;;;;2091523;28;20025;-75
2022/06/27 02:26:57;;;;;;;6.13;5.60;;;;;;;;;;2091092;28;20064;-74
2022/06/27 02:28:17;;;;;;;5.70;5.22;;;;;;;;;;2089929;28;20028;-75
2022/06/27 02:29:37;;;;;;;5.40;5.00;;;;;;;;;;2093893;28;20021;-74
2022/06/27 02:30:56;;;;;;;6.75;5.60;;;;;;;;;;2090860;28;20401;-74
2022/06/27 02:32:15;;;;;;;5.72;5.32;;;;;;;;;;2091742;28;20502;-74
2022/06/27 02:33:35;;;;;;;6.35;5.72;;;;;;;;;;2092160;28;20037;-76
2022/06/27 02:34:57;;;;;;;5.53;5.13;;;;;;;;;;2093034;28;20037;-74
2022/06/27 02:36:21;;;;;;;7.95;6.05;;;;;;;;;;2091634;28;20020;-74
2022/06/27 02:37:40;;;;;;;6.30;5.82;;;;;;;;;;2088289;28;20029;-74
2022/06/27 02:39:00;;;;;;;5.93;5.15;;;;;;;;;;2089629;28;20072;-74
2022/06/27 02:40:19;;;;;;;6.68;5.85;;;;;;;;;;2090690;28;20072;-74
2022/06/27 02:41:40;;;;;;;5.57;5.07;;;;;;;;;;2091621;28;20016;-74
2022/06/27 02:43:00;;;;;;;6.10;5.60;;;;;;;;;;2091466;28;20025;-74
2022/06/27 02:44:20;;;;;;;5.15;4.85;;;;;;;;;;2092993;28;20033;-74
2022/06/27 02:45:40;;;;;;;5.20;4.90;;;;;;;;;;2092236;28;20041;-76
2022/06/27 02:46:59;;;;;;;6.47;5.90;;;;;;;;;;2091646;28;20052;-74
2022/06/27 02:48:19;;;;;;;6.47;5.97;;;;;;;;;;2091320;28;20044;-75
2022/06/27 02:49:38;;;;;;;6.25;5.60;;;;;;;;;;2093224;28;20025;-75
2022/06/27 02:50:58;;;;;;;7.22;6.68;;;;;;;;;;2093603;28;20052;-75
2022/06/27 02:52:38;;;;;;;5.88;5.35;;;;;;;;;;2091441;28;20040;-75
2022/06/27 02:54:05;;;;;;;6.60;6.00;;;;;;;;;;2092101;28;20081;-75
2022/06/27 02:55:27;;;;;;;9.90;6.28;;;;;;;;;;2091358;28;20075;-74
2022/06/27 02:56:49;;;;;;;8.52;6.13;;;;;;;;;;2091894;28;20390;-74
2022/06/27 02:58:10;;;;;;;6.85;6.25;;;;;;;;;;2094916;28;20024;-79
2022/06/27 02:59:33;;;;;;;6.78;6.15;;;;;;;;;;2094384;28;20033;-75
2022/06/27 03:00:53;;;;;;;6.72;6.13;;;;;;;;;;2091899;28;20029;-74
2022/06/27 03:02:15;;;;;;;6.38;5.88;;;;;;;;;;2099245;28;20190;-74
2022/06/27 03:03:35;;;;;;;6.65;6.00;;;;;;;;;;2096331;28;20024;-75
2022/06/27 03:04:54;;;;;;;6.68;6.18;;;;;;;;;;2091404;28;20029;-76
2022/06/27 03:06:14;;;;;;;5.65;5.15;;;;;;;;;;2092550;28;20505;-74
2022/06/27 03:07:36;;;;;;;5.55;5.15;;;;;;;;;;2090654;28;20470;-76
2022/06/27 03:08:55;;;;;;;9.07;5.18;;;;;;;;;;2091855;28;20028;-74
2022/06/27 03:10:14;;;;;;;6.05;5.60;;;;;;;;;;2092530;28;20037;-74
2022/06/27 03:11:33;;;;;;;6.38;5.88;;;;;;;;;;2092628;28;20029;-75
2022/06/27 03:12:52;;;;;;;5.32;4.85;;;;;;;;;;2090759;28;20064;-74
2022/06/27 03:14:11;;;;;;;5.63;5.22;;;;;;;;;;2092156;28;20045;-74
2022/06/27 03:15:30;;;;;;;5.90;5.38;;;;;;;;;;2091943;28;20636;-76
2022/06/27 03:16:48;;;;;;;5.43;5.00;;;;;;;;;;2092351;28;20477;-74
2022/06/27 03:18:08;;;;;;;6.07;5.40;;;;;;;;;;2091692;28;20108;-76
2022/06/27 03:19:28;;;;;;;8.00;5.18;;;;;;;;;;2091483;28;20025;-74
2022/06/27 03:20:47;;;;;;;6.85;5.10;;;;;;;;;;2091366;28;20028;-74
2022/06/27 03:22:06;;;;;;;6.43;5.68;;;;;;;;;;2092798;28;20033;-78
2022/06/27 03:23:25;;;;;;;7.18;6.57;;;;;;;;;;2093121;28;20037;-74
2022/06/27 03:24:44;;;;;;;5.55;5.13;;;;;;;;;;2093772;28;20029;-74
2022/06/27 03:26:03;;;;;;;6.60;6.00;;;;;;;;;;2091876;28;20072;-74
2022/06/27 03:27:22;;;;;;;5.93;5.47;;;;;;;;;;2092123;28;20470;-74
2022/06/27 03:28:41;;;;;;;6.35;5.43;;;;;;;;;;2091925;28;20108;-74
2022/06/27 03:30:00;;;;;;;6.80;5.40;;;;;;;;;;2093908;28;20037;-74
2022/06/27 03:31:19;;;;;;;6.47;5.63;;;;;;;;;;2092541;28;20033;-74
2022/06/27 03:32:38;;;;;;;5.75;5.40;;;;;;;;;;2092507;28;20080;-74
2022/06/27 03:33:57;;;;;;;6.18;5.60;;;;;;;;;;2091737;28;20036;-77
2022/06/27 03:35:16;;;;;;;6.68;5.50;;;;;;;;;;2091341;28;20436;-75
2022/06/27 03:36:35;;;;;;;5.95;5.35;;;;;;;;;;2091968;28;20040;-74
2022/06/27 03:37:54;;;;;;;5.30;4.90;;;;;;;;;;2091351;28;20231;-74
2022/06/27 03:39:13;;;;;;;5.60;5.10;;;;;;;;;;2088085;28;20033;-76
2022/06/27 03:40:32;;;;;;;6.00;4.88;;;;;;;;;;2088289;28;20398;-74
2022/06/27 03:41:51;;;;;;;5.50;5.10;;;;;;;;;;2085402;28;20074;-75
2022/06/27 03:43:10;;;;;;;5.75;5.20;;;;;;;;;;2092051;28;20040;-78
2022/06/27 03:44:29;;;;;;;5.35;4.80;;;;;;;;;;2091261;28;20052;-75
2022/06/27 03:45:48;;;;;;;5.90;5.38;;;;;;;;;;2090629;28;20052;-75
2022/06/27 03:47:07;;;;;;;5.28;4.80;;;;;;;;;;2090919;28;20041;-76
2022/06/27 03:50:04;;;;;;;5.18;4.72;;;;;;;;;;2092020;28;20456;-74
2022/06/27 03:51:23;;;;;;;8.80;4.57;;;;;;;;;;2091394;28;20063;-74
2022/06/27 03:52:41;;;;;;;7.28;5.00;;;;;;;;;;2090613;28;20032;-74
2022/06/27 03:54:00;;;;;;;4.60;4.30;;;;;;;;;;2092100;28;20045;-75
2022/06/27 03:55:19;;;;;;;4.78;4.45;;;;;;;;;;2092194;28;20498;-76
2022/06/27 03:56:38;;;;;;;6.97;4.50;;;;;;;;;;2092070;28;20482;-76
2022/06/27 03:57:58;;;;;;;5.00;4.60;;;;;;;;;;2091625;28;20033;-74
2022/06/27 03:59:17;;;;;;;5.25;4.45;;;;;;;;;;2090208;28;20116;-75
2022/06/27 04:00:36;;;;;;;9.48;4.57;;;;;;;;;;2091857;28;20465;-78
2022/06/27 04:01:55;;;;;;;4.30;4.00;;;;;;;;;;2091451;28;20029;-73
2022/06/27 04:03:14;;;;;;;4.93;4.47;;;;;;;;;;2090111;28;20029;-74
2022/06/27 04:04:32;;;;;;;6.88;5.07;;;;;;;;;;2087363;28;21133;-75
2022/06/27 04:05:51;;;;;;;6.78;4.55;;;;;;;;;;2088191;28;20029;-74
2022/06/27 04:07:10;;;;;;;4.57;4.20;;;;;;;;;;2092339;28;20394;-74
2022/06/27 04:08:29;;;;;;;6.70;4.50;;;;;;;;;;2092420;28;20493;-77
2022/06/27 04:09:48;;;;;;;7.22;4.85;;;;;;;;;;2090237;28;20112;-74
2022/06/27 04:11:07;;;;;;;6.07;4.40;;;;;;;;;;2088396;28;20025;-74
2022/06/27 04:12:26;;;;;;;8.63;5.35;;;;;;;;;;2089191;28;20029;-74
2022/06/27 04:13:45;;;;;;;9.32;5.30;;;;;;;;;;2090564;28;20482;-74
2022/06/27 04:15:05;;;;;;;7.53;4.40;;;;;;;;;;2089342;28;20041;-75
2022/06/27 04:16:24;;;;;;;5.97;4.05;;;;;;;;;;2091708;28;20032;-74
2022/06/27 04:17:43;;;;;;;6.00;4.72;;;;;;;;;;2092155;28;20033;-74
2022/06/27 04:19:02;;;;;;;5.18;4.50;;;;;;;;;;2090550;28;20037;-75
2022/06/27 04:20:21;;;;;;;6.25;4.93;;;;;;;;;;2090126;28;20116;-78
2022/06/27 04:21:40;;;;;;;4.32;3.90;;;;;;;;;;2090790;28;20047;-74
2022/06/27 04:22:59;;;;;;;4.80;4.35;;;;;;;;;;2091026;28;20514;-74
2022/06/27 04:24:17;;;;;;;10.40;4.68;;;;;;;;;;2090239;28;20024;-75
2022/06/27 04:25:36;;;;;;;5.63;4.40;;;;;;;;;;2091766;28;20021;-74
2022/06/27 04:26:55;;;;;;;4.90;4.50;;;;;;;;;;2092783;28;20029;-74
2022/06/27 04:28:14;;;;;;;5.18;4.15;;;;;;;;;;2091728;28;20017;-74
2022/06/27 04:29:33;;;;;;;10.13;4.80;;;;;;;;;;2090167;28;20505;-74
2022/06/27 04:30:52;;;;;;;4.63;4.22;;;;;;;;;;2086727;28;20517;-74
2022/06/27 04:32:11;;;;;;;13.38;4.47;;;;;;;;;;2091774;28;20044;-74
2022/06/27 04:33:30;;;;;;;4.70;4.40;;;;;;;;;;2091511;28;20024;-74
2022/06/27 04:34:49;;;;;;;5.68;4.68;;;;;;;;;;2090826;28;20072;-76
2022/06/27 04:36:08;;;;;;;4.07;3.60;;;;;;;;;;2091587;28;20036;-74
2022/06/27 04:37:29;;;;;;;6.28;4.70;;;;;;;;;;2090246;28;20037;-78
2022/06/27 04:38:48;;;;;;;5.32;4.47;;;;;;;;;;2091674;28;20024;-75
2022/06/27 04:40:08;;;;;;;8.10;4.22;;;;;;;;;;2090959;28;20028;-74
2022/06/27 04:41:28;;;;;;;4.28;3.90;;;;;;;;;;2091530;28;20774;-74
2022/06/27 04:42:49;;;;;;;4.40;3.78;;;;;;;;;;2089588;28;20410;-77
2022/06/27 04:44:08;;;;;;;5.28;3.72;;;;;;;;;;2088368;28;20463;-74
2022/06/27 04:45:28;;;;;;;5.80;3.70;;;;;;;;;;2088532;28;20072;-74
2022/06/27 04:46:47;;;;;;;4.20;3.80;;;;;;;;;;2088429;28;20506;-74
2022/06/27 04:48:07;;;;;;;6.40;4.40;;;;;;;;;;2091665;28;20029;-75
2022/06/27 04:49:26;;;;;;;6.63;3.92;;;;;;;;;;2091676;28;20455;-76
2022/06/27 04:50:45;;;;;;;4.72;4.25;;;;;;;;;;2092104;28;20024;-75
2022/06/27 04:52:06;;;;;;;7.60;4.00;;;;;;;;;;2089646;28;20033;-80
2022/06/27 04:53:27;;;;;;;6.32;4.47;;;;;;;;;;2089773;28;20037;-81
2022/06/27 04:54:46;;;;;;;8.35;5.45;;;;;;;;;;2088928;28;20097;-79
2022/06/27 04:56:07;;;;;;;6.80;5.30;;;;;;;;;;2090167;28;20040;-80
2022/06/27 04:57:27;;;;;;;7.78;4.40;;;;;;;;;;2092452;28;20111;-82
2022/06/27 04:58:46;;;;;;;8.27;4.35;;;;;;;;;;2091463;28;20025;-83
2022/06/27 05:00:07;;;;;;;4.45;4.10;;;;;;;;;;2091451;28;20037;-79
2022/06/27 05:01:26;;;;;;;5.38;4.43;;;;;;;;;;2091109;28;20036;-81
2022/06/27 05:02:45;;;;;;;4.13;3.83;;;;;;;;;;2091130;28;20033;-79
2022/06/27 05:04:04;;;;;;;5.15;3.60;;;;;;;;;;2091766;28;20029;-80
2022/06/27 05:05:23;;;;;;;4.45;3.90;;;;;;;;;;2090456;28;20077;-77
2022/06/27 05:06:42;;;;;;;5.72;4.25;;;;;;;;;;2087416;28;20125;-77
2022/06/27 05:08:01;;;;;;;6.97;3.92;;;;;;;;;;2085102;28;20029;-76
2022/06/27 05:09:20;;;;;;;4.15;3.75;;;;;;;;;;2090613;28;20037;-77
2022/06/27 05:10:39;;;;;;;5.28;4.22;;;;;;;;;;2090825;28;20025;-77
2022/06/27 05:11:58;;;;;;;3.80;3.50;;;;;;;;;;2091407;28;20056;-77
2022/06/27 05:13:16;;;;;;;4.35;3.95;;;;;;;;;;2091728;28;20020;-77
2022/06/27 05:14:35;;;;;;;7.07;3.78;;;;;;;;;;2091724;28;20060;-77
2022/06/27 05:15:54;;;;;;;6.00;3.35;;;;;;;;;;2090747;28;20041;-77
2022/06/27 05:17:14;;;;;;;3.65;3.45;;;;;;;;;;2090904;28;20032;-77
2022/06/27 05:18:33;;;;;;;4.22;3.80;;;;;;;;;;2090387;28;20033;-76
2022/06/27 05:19:52;;;;;;;4.07;3.75;;;;;;;;;;2087756;28;20207;-76
2022/06/27 05:21:11;;;;;;;4.28;3.97;;;;;;;;;;2093230;28;20068;-76
2022/06/27 05:22:30;;;;;;;5.45;3.38;;;;;;;;;;2090034;28;20033;-77
2022/06/27 05:23:50;;;;;;;5.65;3.70;;;;;;;;;;2091158;28;20028;-76
2022/06/27 05:25:10;;;;;;;3.97;3.67;;;;;;;;;;2090446;28;20398;-76
2022/06/27 05:26:29;;;;;;;4.43;3.72;;;;;;;;;;2090347;28;20061;-77
2022/06/27 05:27:48;;;;;;;5.03;3.55;;;;;;;;;;2091281;28;20029;-77
2022/06/27 05:29:07;;;;;;;5.68;3.70;;;;;;;;;;2086156;28;20038;-76
2022/06/27 05:30:28;;;;;;;3.58;3.28;;;;;;;;;;2090739;28;20025;-77
2022/06/27 05:31:47;;;;;;;3.90;3.60;;;;;;;;;;2090461;28;20390;-76
2022/06/27 05:33:06;;;;;;;6.05;3.30;;;;;;;;;;2087704;28;20509;-77
2022/06/27 05:34:25;;;;;;;6.80;3.33;;;;;;;;;;2090848;28;20025;-75
2022/06/27 05:35:45;;;;;;;6.07;3.55;;;;;;;;;;2091254;28;20474;-76
2022/06/27 05:37:05;;;;;;;7.38;3.78;;;;;;;;;;2091194;28;20033;-77
2022/06/27 05:38:23;;;;;;;3.90;3.60;;;;;;;;;;2083157;28;20131;-77
2022/06/27 05:39:44;;;;;;;4.07;3.78;;;;;;;;;;2087793;28;20029;-76
2022/06/27 05:41:03;;;;;;;5.53;3.55;;;;;;;;;;2089262;28;20110;-77
2022/06/27 05:42:21;;;;;;;7.32;3.53;;;;;;;;;;2090175;28;20474;-75
2022/06/27 05:43:40;;;;;;;4.32;3.42;;;;;;;;;;2089208;28;20506;-75
2022/06/27 05:45:01;;;;;;;13.52;3.25;;;;;;;;;;2088252;28;20120;-75
2022/06/27 05:46:20;;;;;;;3.45;3.03;;;;;;;;;;2089741;28;20032;-75
2022/06/27 05:47:40;;;;;;;6.45;3.55;;;;;;;;;;2087835;28;20044;-77
2022/06/27 05:49:01;;;;;;;4.63;3.40;;;;;;;;;;2082726;28;20063;-73
2022/06/27 05:50:20;;;;;;;4.55;3.40;;;;;;;;;;2088793;28;20017;-74
2022/06/27 05:51:41;;;;;;;3.50;3.20;;;;;;;;;;2092996;28;20032;-75
2022/06/27 05:53:01;;;;;;;4.25;3.30;;;;;;;;;;2085914;28;20521;-78
2022/06/27 05:54:23;;;;;;;6.57;3.10;;;;;;;;;;2093242;28;20036;-74
2022/06/27 05:55:45;;;;;;;3.97;3.10;;;;;;;;;;2086808;28;20032;-76
2022/06/27 05:57:05;;;;;;;3.70;3.40;;;;;;;;;;2088443;28;20029;-76
2022/06/27 05:58:25;;;;;;;5.20;3.38;;;;;;;;;;2087673;28;20057;-77
2022/06/27 05:59:44;;;;;;;3.50;3.28;;;;;;;;;;2092480;28;20044;-76
2022/06/27 06:01:04;;;;;;;5.13;3.75;;;;;;;;;;2091165;28;20103;-76
2022/06/27 06:02:25;;;;;;;3.70;3.40;;;;;;;;;;2093773;28;20143;-78
2022/06/27 06:03:45;;;;;;;3.60;3.30;;;;;;;;;;2092392;28;20028;-76
2022/06/27 06:05:04;;;;;;;8.32;3.50;;;;;;;;;;2093290;28;20029;-76
2022/06/27 06:06:24;;;;;;;4.72;3.28;;;;;;;;;;2092714;28;20028;-76
2022/06/27 06:07:44;;;;;;;6.05;3.25;;;;;;;;;;2091605;28;20021;-76
2022/06/27 06:09:03;;;;;;;6.85;3.30;;;;;;;;;;2093040;28;20033;-76
2022/06/27 06:10:22;;;;;;;7.82;3.17;;;;;;;;;;2093120;28;20486;-76
2022/06/27 06:11:42;;;;;;;5.32;3.70;;;;;;;;;;2093102;28;20029;-76
2022/06/27 06:13:02;;;;;;;5.28;3.50;;;;;;;;;;2091798;28;20037;-76
2022/06/27 06:14:21;;;;;;;6.93;3.67;;;;;;;;;;2092243;28;20032;-76
2022/06/27 06:15:40;;;;;;;5.80;3.10;;;;;;;;;;2093092;28;20033;-76
2022/06/27 06:16:59;;;;;;;8.05;3.60;;;;;;;;;;2092241;28;20490;-76
2022/06/27 06:18:19;;;;;;;6.65;3.60;;;;;;;;;;2093611;28;20107;-76
2022/06/27 06:19:38;;;;;;;3.58;3.22;;;;;;;;;;2092693;28;20029;-76
2022/06/27 06:20:57;;;;;;;11.10;3.25;;;;;;;;;;2093171;28;20440;-76
2022/06/27 06:22:17;;;;;;;4.68;3.30;;;;;;;;;;2091365;28;20056;-76
2022/06/27 06:23:36;;;;;;;4.45;3.20;;;;;;;;;;2092178;28;20033;-76
2022/06/27 06:24:56;;;;;;;3.50;3.20;;;;;;;;;;2093136;28;20029;-76
2022/06/27 06:26:16;;;;;;;3.20;3.00;;;;;;;;;;2093789;28;20446;-76
2022/06/27 06:27:35;;;;;;;3.75;3.17;;;;;;;;;;2092905;28;20016;-77
2022/06/27 06:28:54;;;;;;;3.85;3.20;;;;;;;;;;2093194;28;20025;-76
2022/06/27 06:30:13;;;;;;;3.70;3.15;;;;;;;;;;2092848;28;20033;-76
2022/06/27 06:31:32;;;;;;;5.93;3.05;;;;;;;;;;2092394;28;20036;-76
2022/06/27 06:32:51;;;;;;;8.20;3.55;;;;;;;;;;2092092;28;20542;-76
2022/06/27 06:34:11;;;;;;;4.25;3.20;;;;;;;;;;2089512;28;20033;-76
2022/06/27 06:35:31;;;;;;;3.70;3.15;;;;;;;;;;2092779;28;20033;-79
2022/06/27 06:36:51;;;;;;;4.82;3.17;;;;;;;;;;2091862;28;20033;-76
2022/06/27 06:38:10;;;;;;;5.93;3.28;;;;;;;;;;2090570;28;20041;-76
2022/06/27 06:39:29;;;;;;;5.05;3.10;;;;;;;;;;2090120;28;20033;-76
2022/06/27 06:40:48;;;;;;;3.83;3.50;;;;;;;;;;2089817;28;20033;-76
2022/06/27 06:42:07;;;;;;;3.35;3.00;;;;;;;;;;2089094;28;20033;-76
2022/06/27 06:43:26;;;;;;;3.42;3.08;;;;;;;;;;2092651;28;20084;-77
2022/06/27 06:44:46;;;;;;;7.15;3.85;;;;;;;;;;2093314;28;20025;-76
2022/06/27 06:46:05;;;;;;;5.50;3.13;;;;;;;;;;2092649;28;20041;-76
2022/06/27 06:47:26;;;;;;;4.18;3.65;;;;;;;;;;2092402;28;20494;-76
2022/06/27 06:48:45;;;;;;;5.32;3.42;;;;;;;;;;2091867;28;20029;-76
2022/06/27 06:50:05;;;;;;;4.18;2.92;;;;;;;;;;2091767;28;20104;-76
2022/06/27 06:51:24;;;;;;;4.85;3.40;;;;;;;;;;2091056;28;20390;-76
2022/06/27 06:52:50;;;;;;;6.00;3.42;;;;;;;;;;2091582;28;20049;-76
2022/06/27 06:54:15;;;;;;;7.13;3.28;;;;;;;;;;2096432;28;20115;-76
2022/06/27 06:55:34;;;;;;;4.97;3.28;;;;;;;;;;2090420;28;20107;-76
2022/06/27 06:56:53;;;;;;;5.32;3.00;;;;;;;;;;2091924;28;20045;-76
2022/06/27 06:58:13;;;;;;;3.30;3.10;;;;;;;;;;2093140;28;20024;-77
2022/06/27 06:59:32;;;;;;;9.02;4.03;;;;;;;;;;2090124;28;20150;-76
2022/06/27 07:00:52;;;;;;;8.13;4.88;;;;;;;;;;2092111;28;20037;-77
2022/06/27 07:02:11;;;;;;;5.28;3.60;;;;;;;;;;2091247;28;20028;-76
2022/06/27 07:03:31;;;;;;;5.30;3.15;;;;;;;;;;2090359;28;20463;-76
2022/06/27 07:04:52;;;;;;;3.47;3.25;;;;;;;;;;2091848;28;20067;-76
2022/06/27 07:06:12;;;;;;;5.20;3.20;;;;;;;;;;2093158;28;20021;-75
2022/06/27 07:07:34;;;;;;;3.80;3.25;;;;;;;;;;2092869;28;20033;-75
2022/06/27 07:08:57;;;;;;;6.40;3.13;;;;;;;;;;2092325;28;20033;-76
2022/06/27 07:10:16;;;;;;;3.67;2.88;;;;;;;;;;2090480;28;20329;-77
2022/06/27 07:11:37;;;;;;;7.18;3.35;;;;;;;;;;2088684;28;20033;-76
2022/06/27 07:12:56;;;;;;;3.65;3.28;;;;;;;;;;2092082;28;20033;-76
2022/06/27 07:14:15;;;;;;;3.70;2.90;;;;;;;;;;2093036;28;20029;-75
2022/06/27 07:15:34;;;;;;;3.50;3.20;;;;;;;;;;2093542;28;20108;-76
2022/06/27 07:16:54;;;;;;;5.40;3.05;;;;;;;;;;2092699;28;20104;-76
2022/06/27 07:18:13;;;;;;;3.83;3.33;;;;;;;;;;2092345;28;20135;-77
2022/06/27 07:19:33;;;;;;;6.93;3.05;;;;;;;;;;2093361;28;20524;-76
2022/06/27 07:20:52;;;;;;;4.45;3.10;;;;;;;;;;2092341;28;20025;-75
2022/06/27 07:22:11;;;;;;;3.72;3.00;;;;;;;;;;2091799;28;20024;-78
2022/06/27 07:23:31;;;;;;;3.20;2.88;;;;;;;;;;2089830;28;20037;-76
2022/06/27 07:24:51;;;;;;;6.47;3.05;;;;;;;;;;2091247;28;20017;-76
2022/06/27 07:26:10;;;;;;;4.50;2.70;;;;;;;;;;2092898;28;20066;-76
2022/06/27 07:27:29;;;;;;;3.88;2.95;;;;;;;;;;2087179;28;20135;-76
2022/06/27 07:28:48;;;;;;;3.40;3.20;;;;;;;;;;2091452;28;20037;-76
2022/06/27 07:30:09;;;;;;;3.78;3.17;;;;;;;;;;2091699;28;20032;-76
2022/06/27 07:31:28;;;;;;;4.95;2.80;;;;;;;;;;2089064;28;20037;-77
2022/06/27 07:32:46;;;;;;;3.10;2.75;;;;;;;;;;2090538;28;20037;-77
2022/06/27 07:34:08;;;;;;;4.00;3.00;;;;;;;;;;2090843;28;20033;-76
2022/06/27 07:35:29;;;;;;;5.97;2.58;;;;;;;;;;2093659;28;20053;-76
2022/06/27 07:36:48;;;;;;;3.33;3.05;;;;;;;;;;2093127;28;20025;-76
2022/06/27 07:38:07;;;;;;;3.10;2.63;;;;;;;;;;2091759;28;20033;-76
2022/06/27 07:39:26;;;;;;;5.35;2.90;;;;;;;;;;2092308;28;20033;-76
2022/06/27 07:40:46;;;;;;;3.50;2.75;;;;;;;;;;2091741;28;20510;-76
2022/06/27 07:42:06;;;;;;;3.47;2.60;;;;;;;;;;2091343;28;20037;-76
2022/06/27 07:43:25;;;;;;;3.45;2.72;;;;;;;;;;2088909;28;20394;-76
2022/06/27 07:44:44;;;;;;;3.30;2.83;;;;;;;;;;2089867;28;20489;-77
2022/06/27 07:46:03;;;;;;;3.85;2.88;;;;;;;;;;2091812;28;20148;-75
2022/06/27 07:47:22;;;;;;;4.57;2.70;;;;;;;;;;2091946;28;20041;-76
2022/06/27 07:48:41;;;;;;;5.15;3.47;;;;;;;;;;2090801;28;20032;-76
2022/06/27 07:50:00;;;;;;;5.03;2.80;;;;;;;;;;2092810;28;20544;-76
2022/06/27 07:51:21;;;;;;;5.88;2.90;;;;;;;;;;2088585;28;20025;-76
2022/06/27 07:54:19;;;;;;;2.83;2.72;;;;;;;;;;2090803;28;20394;-76
2022/06/27 07:55:39;;;;;;;10.18;2.63;;;;;;;;;;2092565;28;20037;-76
2022/06/27 07:57:00;;;;;;;2.83;2.63;;;;;;;;;;2091352;28;20025;-75
2022/06/27 07:58:21;;;;;;;3.30;2.60;;;;;;;;;;2093519;28;20020;-76
2022/06/27 07:59:41;;;;;;;2.97;2.65;;;;;;;;;;2091570;28;20107;-76